Time;durP1;ratioP1;P1;durP2;ratioP2;P2;SDS_P1;SDS_P2;PMS_P1;PMS_P2;Temp;Humidity;BMP_temperature;BMP_pressure;BME280_temperature;BME280_humidity;BME280_pressure;Samples;Min_cycle;Max_cycle;Signal;HPM_P1;HPM_P2
2023/08/20 00:01:14;;;;;;;11.35;1.98;;;16.60;99.90;;;;;;5064761;28;20120;-80
2023/08/20 00:03:41;;;;;;;10.50;1.83;;;16.60;99.90;;;;;;5019672;28;20056;-80
2023/08/20 00:06:08;;;;;;;14.48;2.10;;;16.60;99.90;;;;;;5036776;28;20124;-80
2023/08/20 00:08:36;;;;;;;11.13;2.03;;;16.60;99.90;;;;;;5037289;28;20140;-79
2023/08/20 00:11:04;;;;;;;7.88;1.73;;;16.60;99.90;;;;;;5037044;28;20468;-80
2023/08/20 00:13:31;;;;;;;12.55;1.92;;;16.60;99.90;;;;;;5036040;28;20358;-80
2023/08/20 00:15:57;;;;;;;11.88;1.90;;;16.50;99.90;;;;;;5032904;28;20085;-80
2023/08/20 00:18:27;;;;;;;10.20;2.15;;;16.50;99.90;;;;;;5020377;28;20152;-80
2023/08/20 00:20:53;;;;;;;9.15;2.08;;;16.40;99.90;;;;;;5018649;28;20049;-80
2023/08/20 00:23:20;;;;;;;15.13;2.13;;;16.50;99.90;;;;;;5044509;28;20131;-79
2023/08/20 00:25:47;;;;;;;13.57;1.70;;;16.50;99.90;;;;;;5077031;28;20048;-80
2023/08/20 00:28:13;;;;;;;8.38;2.17;;;16.50;99.90;;;;;;5043949;28;20037;-80
2023/08/20 00:30:41;;;;;;;6.25;2.05;;;16.40;99.90;;;;;;5038134;28;20040;-80
2023/08/20 00:33:07;;;;;;;7.57;2.10;;;16.40;99.90;;;;;;5055665;28;20052;-80
2023/08/20 00:35:34;;;;;;;7.90;1.67;;;16.40;99.90;;;;;;5036358;28;20136;-80
2023/08/20 00:38:02;;;;;;;8.93;1.92;;;16.30;99.90;;;;;;5011564;28;20072;-80
2023/08/20 00:40:29;;;;;;;15.40;2.35;;;16.30;99.90;;;;;;5023123;28;20038;-80
2023/08/20 00:42:56;;;;;;;9.10;2.15;;;16.30;99.90;;;;;;5036215;28;20057;-80
2023/08/20 00:45:22;;;;;;;11.85;1.90;;;16.30;99.90;;;;;;5019204;28;20041;-80
2023/08/20 00:47:50;;;;;;;7.35;1.50;;;16.30;99.90;;;;;;5035497;28;20041;-80
2023/08/20 00:50:18;;;;;;;7.65;1.73;;;16.20;99.90;;;;;;5019597;28;20045;-80
2023/08/20 00:52:44;;;;;;;8.98;2.00;;;16.20;99.90;;;;;;5035274;28;20042;-80
2023/08/20 00:55:13;;;;;;;7.78;1.50;;;16.20;99.90;;;;;;5039285;28;20098;-80
2023/08/20 00:57:40;;;;;;;8.52;1.65;;;16.20;99.90;;;;;;5053845;28;20075;-80
2023/08/20 01:00:07;;;;;;;8.02;1.88;;;16.20;99.90;;;;;;5026606;28;20403;-80
2023/08/20 01:02:34;;;;;;;7.65;1.90;;;16.20;99.90;;;;;;5024036;28;20087;-79
2023/08/20 01:05:01;;;;;;;6.05;1.98;;;16.10;99.90;;;;;;5032526;28;20447;-80
2023/08/20 01:07:28;;;;;;;12.90;1.70;;;16.10;99.90;;;;;;5031636;28;20099;-79
2023/08/20 01:09:54;;;;;;;13.60;2.08;;;16.10;99.90;;;;;;5050414;28;20057;-79
2023/08/20 01:12:21;;;;;;;13.82;1.80;;;16.00;99.90;;;;;;5002163;28;20124;-79
2023/08/20 01:14:48;;;;;;;8.98;1.60;;;16.00;99.90;;;;;;5053416;28;20141;-79
2023/08/20 01:17:15;;;;;;;8.00;1.60;;;16.00;99.90;;;;;;5038175;28;20041;-79
2023/08/20 01:19:42;;;;;;;10.25;1.95;;;15.90;99.90;;;;;;5039302;28;20048;-80
2023/08/20 01:22:09;;;;;;;7.90;1.80;;;15.90;99.90;;;;;;5059479;28;20045;-80
2023/08/20 01:24:35;;;;;;;8.57;1.75;;;15.80;99.90;;;;;;5032618;28;20083;-80
2023/08/20 01:27:02;;;;;;;5.53;1.58;;;15.80;99.90;;;;;;5017615;28;20494;-80
2023/08/20 01:29:29;;;;;;;7.28;2.00;;;15.80;99.90;;;;;;5053089;28;20119;-79
2023/08/20 01:31:55;;;;;;;9.57;1.73;;;15.80;99.90;;;;;;5074443;28;20112;-79
2023/08/20 01:34:22;;;;;;;10.15;1.85;;;15.80;99.90;;;;;;5031051;28;20040;-80
2023/08/20 01:36:50;;;;;;;6.03;1.85;;;15.80;99.90;;;;;;5058626;28;20068;-80
2023/08/20 01:39:18;;;;;;;9.40;1.85;;;15.80;99.90;;;;;;5032775;28;20045;-79
2023/08/20 01:41:45;;;;;;;7.95;1.48;;;15.80;99.90;;;;;;5040622;28;20048;-79
2023/08/20 01:44:12;;;;;;;8.05;1.80;;;15.80;99.90;;;;;;5064217;28;20136;-80
2023/08/20 01:46:39;;;;;;;9.50;2.10;;;15.80;99.90;;;;;;5083952;28;20098;-79
2023/08/20 01:49:05;;;;;;;7.20;1.67;;;15.80;99.90;;;;;;5088127;28;20083;-79
2023/08/20 01:51:32;;;;;;;12.70;2.08;;;15.80;99.90;;;;;;5065871;28;20041;-80
2023/08/20 01:53:59;;;;;;;12.50;2.30;;;15.80;99.90;;;;;;5082941;28;20051;-79
2023/08/20 01:56:26;;;;;;;9.63;2.42;;;15.80;99.90;;;;;;5081537;28;20069;-80
2023/08/20 01:58:53;;;;;;;6.60;1.90;;;15.80;99.90;;;;;;5054042;28;20055;-80
2023/08/20 02:01:19;;;;;;;10.70;2.15;;;15.90;99.90;;;;;;5053228;28;20040;-80
2023/08/20 02:03:46;;;;;;;9.52;2.10;;;15.80;99.90;;;;;;5054379;28;20215;-80
2023/08/20 02:06:13;;;;;;;7.03;1.90;;;15.80;99.90;;;;;;5053187;28;20049;-80
2023/08/20 02:08:44;;;;;;;9.10;1.70;;;15.70;99.90;;;;;;5073305;28;20036;-79
2023/08/20 02:11:10;;;;;;;6.10;1.90;;;15.70;99.90;;;;;;5092364;28;20082;-79
2023/08/20 02:13:37;;;;;;;9.15;2.08;;;15.60;99.90;;;;;;5065926;28;20048;-79
2023/08/20 02:16:04;;;;;;;17.13;3.47;;;15.60;99.90;;;;;;5068017;28;20044;-79
2023/08/20 02:18:33;;;;;;;15.50;2.58;;;15.60;99.90;;;;;;5070404;28;20045;-79
2023/08/20 02:21:00;;;;;;;12.88;3.80;;;15.70;99.90;;;;;;5053831;28;20060;-80
2023/08/20 02:23:27;;;;;;;16.48;3.58;;;15.70;99.90;;;;;;5053556;28;20068;-80
2023/08/20 02:25:53;;;;;;;17.60;3.63;;;15.70;99.90;;;;;;5037080;28;20040;-80
2023/08/20 02:28:20;;;;;;;20.95;4.22;;;15.60;99.90;;;;;;5058118;28;20069;-80
2023/08/20 02:30:47;;;;;;;15.52;3.58;;;15.70;99.90;;;;;;5083040;28;20044;-80
2023/08/20 02:33:14;;;;;;;13.15;3.75;;;15.70;99.90;;;;;;5052657;28;20440;-80
2023/08/20 02:35:41;;;;;;;16.73;3.90;;;15.70;99.90;;;;;;5061700;28;20351;-80
2023/08/20 02:38:09;;;;;;;13.07;3.88;;;15.70;99.90;;;;;;5075400;28;20105;-80
2023/08/20 02:40:36;;;;;;;15.27;3.95;;;15.70;99.90;;;;;;5052645;28;20467;-80
2023/08/20 02:43:05;;;;;;;16.95;3.63;;;15.70;99.90;;;;;;5070320;28;20083;-80
2023/08/20 02:45:32;;;;;;;15.70;3.83;;;15.70;99.90;;;;;;5080516;28;20367;-80
2023/08/20 02:48:01;;;;;;;13.20;4.30;;;15.60;99.90;;;;;;5079439;28;20151;-80
2023/08/20 02:50:27;;;;;;;17.60;3.80;;;15.70;99.90;;;;;;5080188;28;20367;-80
2023/08/20 02:52:54;;;;;;;13.77;4.00;;;15.60;99.90;;;;;;5061927;28;20067;-80
2023/08/20 02:55:21;;;;;;;12.15;3.67;;;15.60;99.90;;;;;;5083196;28;20044;-80
2023/08/20 02:57:48;;;;;;;15.60;4.40;;;15.50;99.90;;;;;;5085290;28;20044;-80
2023/08/20 03:00:15;;;;;;;12.18;3.72;;;15.50;99.90;;;;;;5062686;28;20036;-80
2023/08/20 03:02:42;;;;;;;13.82;3.83;;;15.50;99.90;;;;;;5064473;28;20131;-80
2023/08/20 03:05:09;;;;;;;12.23;3.53;;;15.50;99.90;;;;;;5089376;28;20038;-80
2023/08/20 03:07:35;;;;;;;9.82;3.28;;;15.50;99.90;;;;;;5090862;28;20042;-80
2023/08/20 03:10:02;;;;;;;12.68;3.17;;;15.50;99.90;;;;;;5084810;28;20052;-80
2023/08/20 03:12:29;;;;;;;10.75;4.13;;;15.40;99.90;;;;;;5040670;28;20135;-79
2023/08/20 03:14:56;;;;;;;9.50;3.40;;;15.40;99.90;;;;;;5077151;28;20047;-80
2023/08/20 03:17:23;;;;;;;15.32;4.10;;;15.40;99.90;;;;;;5086475;28;20147;-80
2023/08/20 03:19:49;;;;;;;11.38;3.20;;;15.30;99.90;;;;;;5065014;28;20132;-80
2023/08/20 03:22:16;;;;;;;7.88;3.28;;;15.30;99.90;;;;;;5088995;28;20120;-80
2023/08/20 03:24:43;;;;;;;15.18;3.55;;;15.30;99.90;;;;;;5092321;28;20374;-79
2023/08/20 03:27:10;;;;;;;11.13;3.55;;;15.30;99.90;;;;;;5081645;28;20044;-79
2023/08/20 03:29:37;;;;;;;12.80;3.55;;;15.30;99.90;;;;;;5076458;28;20367;-79
2023/08/20 03:32:04;;;;;;;13.30;3.97;;;15.30;99.90;;;;;;5078449;28;20065;-79
2023/08/20 03:34:31;;;;;;;10.60;3.65;;;15.30;99.90;;;;;;5076057;28;20040;-79
2023/08/20 03:36:58;;;;;;;15.50;3.40;;;15.30;99.90;;;;;;5077563;28;20102;-79
2023/08/20 03:39:24;;;;;;;16.10;3.42;;;15.30;99.90;;;;;;5069725;28;20422;-79
2023/08/20 03:41:51;;;;;;;16.35;3.33;;;15.30;99.90;;;;;;5081637;28;20432;-79
2023/08/20 03:44:18;;;;;;;12.98;3.50;;;15.30;99.90;;;;;;5088060;28;20077;-79
2023/08/20 03:46:46;;;;;;;12.13;3.70;;;15.30;99.90;;;;;;5056803;28;20037;-79
2023/08/20 03:49:13;;;;;;;13.20;3.05;;;15.30;99.90;;;;;;5087853;28;20050;-80
2023/08/20 03:51:40;;;;;;;12.40;3.53;;;15.20;99.90;;;;;;5076180;28;20092;-80
2023/08/20 03:54:07;;;;;;;18.95;3.97;;;15.20;99.90;;;;;;5075937;28;20075;-80
2023/08/20 03:56:34;;;;;;;15.10;3.30;;;15.20;99.90;;;;;;5077738;28;20073;-80
2023/08/20 03:59:01;;;;;;;14.82;3.83;;;15.30;99.90;;;;;;5077922;28;20134;-80
2023/08/20 04:01:29;;;;;;;12.38;3.95;;;15.30;99.90;;;;;;5081450;28;20071;-79
2023/08/20 04:03:55;;;;;;;13.95;3.75;;;15.30;99.90;;;;;;5072480;28;20484;-80
2023/08/20 04:06:24;;;;;;;11.10;3.42;;;15.30;99.90;;;;;;5056276;28;20045;-79
2023/08/20 04:08:51;;;;;;;14.02;4.20;;;15.40;99.90;;;;;;5057383;28;20422;-80
2023/08/20 04:11:19;;;;;;;13.90;4.28;;;15.30;99.90;;;;;;5055861;28;20037;-80
2023/08/20 04:13:46;;;;;;;14.85;3.50;;;15.30;99.90;;;;;;5055666;28;20041;-80
2023/08/20 04:16:13;;;;;;;24.85;4.00;;;15.30;99.90;;;;;;5072278;28;20052;-80
2023/08/20 04:18:40;;;;;;;21.35;4.03;;;15.30;99.90;;;;;;5097744;28;20118;-79
2023/08/20 04:21:10;;;;;;;11.57;4.03;;;15.30;99.90;;;;;;5095300;28;20040;-80
2023/08/20 04:23:37;;;;;;;15.63;3.67;;;15.20;99.90;;;;;;5068138;28;20497;-79
2023/08/20 04:26:03;;;;;;;11.18;3.60;;;15.20;99.90;;;;;;5071199;28;20052;-80
2023/08/20 04:28:32;;;;;;;17.95;4.63;;;15.10;99.90;;;;;;5055721;28;20136;-79
2023/08/20 04:31:00;;;;;;;11.93;4.30;;;15.20;99.90;;;;;;5063100;28;20048;-80
2023/08/20 04:33:38;;;;;;;16.20;4.43;;;15.10;99.90;;;;;;5060033;28;20048;-79
2023/08/20 04:36:05;;;;;;;12.95;4.28;;;15.10;99.90;;;;;;5055701;28;20148;-79
2023/08/20 04:38:32;;;;;;;13.00;3.83;;;15.00;99.90;;;;;;5055587;28;20420;-79
2023/08/20 04:41:00;;;;;;;15.43;4.75;;;15.00;99.90;;;;;;5068897;28;20132;-79
2023/08/20 04:43:27;;;;;;;15.70;4.85;;;15.00;99.90;;;;;;5078197;28;20059;-78
2023/08/20 04:45:54;;;;;;;15.75;4.00;;;14.90;99.90;;;;;;5063424;28;20775;-79
2023/08/20 04:48:22;;;;;;;13.43;4.35;;;14.90;99.90;;;;;;5075580;28;20467;-79
2023/08/20 04:50:49;;;;;;;9.88;3.90;;;14.90;99.90;;;;;;5077873;28;20467;-79
2023/08/20 04:53:16;;;;;;;10.52;3.60;;;14.80;99.90;;;;;;5086164;28;20123;-79
2023/08/20 04:55:44;;;;;;;12.95;4.03;;;14.80;99.90;;;;;;5074694;28;20049;-79
2023/08/20 04:58:11;;;;;;;15.15;4.60;;;14.80;99.90;;;;;;5055234;28;20111;-79
2023/08/20 05:00:39;;;;;;;14.80;4.63;;;14.80;99.90;;;;;;5038210;28;20467;-79
2023/08/20 05:03:10;;;;;;;11.65;3.90;;;14.80;99.90;;;;;;5067251;28;20049;-79
2023/08/20 05:05:39;;;;;;;12.48;4.35;;;14.80;99.90;;;;;;5055031;28;20041;-79
2023/08/20 05:08:07;;;;;;;18.02;4.05;;;14.80;99.90;;;;;;5060415;28;20032;-79
2023/08/20 05:10:34;;;;;;;11.32;3.72;;;14.80;99.90;;;;;;5074850;28;20367;-79
2023/08/20 05:13:01;;;;;;;12.35;4.43;;;14.80;99.90;;;;;;5051347;28;20072;-81
2023/08/20 05:15:27;;;;;;;16.73;3.85;;;14.80;99.90;;;;;;5056107;28;20076;-80
2023/08/20 05:17:57;;;;;;;16.15;3.50;;;14.80;99.90;;;;;;5055379;28;20483;-79
2023/08/20 05:20:24;;;;;;;8.02;2.83;;;14.80;99.90;;;;;;5037788;28;20061;-78
2023/08/20 05:22:50;;;;;;;14.88;3.58;;;14.90;99.90;;;;;;5068677;28;20067;-79
2023/08/20 05:25:17;;;;;;;20.20;3.80;;;15.00;99.90;;;;;;5082090;28;20106;-80
2023/08/20 05:27:44;;;;;;;12.40;3.42;;;15.00;99.90;;;;;;5053935;28;20174;-80
2023/08/20 05:30:11;;;;;;;13.07;3.25;;;15.10;99.90;;;;;;5099796;28;20055;-80
2023/08/20 05:32:37;;;;;;;14.20;2.67;;;15.10;99.90;;;;;;5067522;28;20048;-80
2023/08/20 05:35:05;;;;;;;9.73;2.72;;;15.20;99.90;;;;;;5069497;28;20144;-79
2023/08/20 05:37:31;;;;;;;11.43;3.25;;;15.20;99.90;;;;;;5073768;28;20051;-79
2023/08/20 05:39:58;;;;;;;9.50;2.72;;;15.30;99.90;;;;;;5057100;28;20125;-80
2023/08/20 05:42:25;;;;;;;12.57;2.85;;;15.40;99.90;;;;;;5091411;28;20051;-80
2023/08/20 05:44:59;;;;;;;14.82;3.25;;;15.50;99.90;;;;;;5094726;28;20036;-80
2023/08/20 05:47:28;;;;;;;16.63;2.92;;;15.60;99.90;;;;;;5062966;28;20551;-79
2023/08/20 05:49:54;;;;;;;15.13;2.83;;;15.60;99.90;;;;;;5095030;28;20046;-80
2023/08/20 05:52:21;;;;;;;12.98;2.80;;;15.80;99.90;;;;;;5064308;28;20060;-80
2023/08/20 05:54:48;;;;;;;14.38;2.92;;;15.80;99.90;;;;;;5068125;28;20123;-80
2023/08/20 05:57:15;;;;;;;13.45;3.30;;;16.00;99.90;;;;;;5068098;28;20140;-80
2023/08/20 05:59:43;;;;;;;15.30;2.80;;;16.10;99.90;;;;;;5081967;28;20065;-80
2023/08/20 06:02:10;;;;;;;13.48;2.38;;;16.20;99.90;;;;;;5077040;28;20053;-80
2023/08/20 06:04:36;;;;;;;14.55;2.72;;;16.30;99.90;;;;;;5063775;28;20478;-80
2023/08/20 06:07:03;;;;;;;16.00;2.60;;;16.40;99.90;;;;;;5063432;28;20095;-80
2023/08/20 06:09:30;;;;;;;19.55;2.90;;;16.60;99.90;;;;;;5087154;28;20054;-80
2023/08/20 06:11:57;;;;;;;11.93;3.00;;;16.70;99.90;;;;;;5086889;28;20051;-80
2023/08/20 06:14:23;;;;;;;9.02;2.50;;;16.70;99.90;;;;;;5088017;28;20087;-80
2023/08/20 06:16:50;;;;;;;9.77;2.53;;;16.80;99.90;;;;;;5068122;28;20075;-80
2023/08/20 06:19:17;;;;;;;9.55;2.60;;;17.00;99.90;;;;;;5081883;28;20045;-80
2023/08/20 06:21:44;;;;;;;17.00;2.95;;;17.00;99.90;;;;;;5083416;28;20048;-80
2023/08/20 06:24:10;;;;;;;17.05;3.00;;;17.10;99.90;;;;;;5054832;28;20407;-79
2023/08/20 06:26:39;;;;;;;10.85;2.55;;;17.10;99.90;;;;;;5053875;28;20124;-80
2023/08/20 06:29:06;;;;;;;15.15;3.13;;;17.10;99.90;;;;;;5054712;28;20048;-80
2023/08/20 06:31:33;;;;;;;14.48;2.78;;;17.10;99.90;;;;;;5077723;28;20068;-79
2023/08/20 06:33:59;;;;;;;22.42;3.38;;;17.20;99.90;;;;;;5065572;28;20040;-80
2023/08/20 06:36:26;;;;;;;14.80;2.67;;;17.30;99.90;;;;;;5075034;28;20136;-80
2023/08/20 06:38:53;;;;;;;19.98;4.03;;;17.40;99.90;;;;;;5054879;28;20123;-81
2023/08/20 06:41:19;;;;;;;16.50;3.03;;;17.50;99.90;;;;;;5069284;28;20398;-79
2023/08/20 06:43:46;;;;;;;10.52;2.50;;;17.60;99.90;;;;;;5065514;28;20415;-79
2023/08/20 06:46:13;;;;;;;12.45;3.33;;;17.70;99.90;;;;;;5046500;28;20037;-79
2023/08/20 06:48:39;;;;;;;18.00;2.90;;;17.90;99.90;;;;;;5062005;28;20120;-79
2023/08/20 06:51:06;;;;;;;13.23;3.13;;;18.00;99.90;;;;;;5022760;28;20148;-79
2023/08/20 06:53:33;;;;;;;13.55;3.05;;;18.20;99.90;;;;;;5064607;28;20036;-79
2023/08/20 06:55:59;;;;;;;11.98;2.88;;;18.20;99.90;;;;;;5069142;28;20044;-79
2023/08/20 06:58:26;;;;;;;12.82;3.30;;;18.30;99.90;;;;;;5034597;28;20051;-80
2023/08/20 07:00:53;;;;;;;14.88;2.90;;;18.50;99.90;;;;;;5033624;28;20461;-79
2023/08/20 07:03:20;;;;;;;14.15;2.80;;;18.60;99.90;;;;;;5048466;28;20096;-80
2023/08/20 07:05:46;;;;;;;17.13;3.45;;;18.70;99.90;;;;;;5061191;28;20108;-80
2023/08/20 07:08:15;;;;;;;16.92;3.05;;;18.80;99.90;;;;;;5062094;28;20515;-80
2023/08/20 07:10:42;;;;;;;8.20;2.15;;;19.00;99.90;;;;;;5046258;28;20482;-80
2023/08/20 07:13:09;;;;;;;11.90;2.78;;;19.00;99.90;;;;;;5018129;28;20045;-79
2023/08/20 07:15:36;;;;;;;8.98;2.60;;;19.10;99.90;;;;;;5027373;28;20048;-80
2023/08/20 07:18:03;;;;;;;11.40;2.35;;;19.20;99.90;;;;;;5068350;28;20045;-81
2023/08/20 07:20:30;;;;;;;12.55;2.28;;;19.30;99.90;;;;;;5053271;28;20481;-80
2023/08/20 07:22:57;;;;;;;13.38;2.33;;;19.50;99.90;;;;;;5054462;28;20486;-80
2023/08/20 07:25:24;;;;;;;13.88;2.70;;;19.60;99.90;;;;;;5052638;28;20052;-80
2023/08/20 07:27:50;;;;;;;6.88;1.85;;;19.60;99.90;;;;;;5040683;28;20120;-80
2023/08/20 07:30:17;;;;;;;8.32;1.75;;;19.60;99.90;;;;;;5063298;28;20143;-81
2023/08/20 07:32:44;;;;;;;7.30;1.88;;;19.80;99.90;;;;;;5052934;28;20072;-80
2023/08/20 07:35:11;;;;;;;10.73;2.17;;;19.90;99.90;;;;;;5054279;28;20053;-80
2023/08/20 07:37:39;;;;;;;5.28;1.48;;;19.90;99.90;;;;;;5039857;28;20029;-80
2023/08/20 07:40:05;;;;;;;8.45;1.63;;;20.10;99.90;;;;;;5024156;28;20052;-81
2023/08/20 07:42:32;;;;;;;8.10;2.10;;;20.20;99.90;;;;;;5065436;28;20059;-81
2023/08/20 07:44:58;;;;;;;7.57;1.75;;;20.10;99.90;;;;;;5046870;28;20124;-80
2023/08/20 07:47:25;;;;;;;14.63;1.88;;;20.20;99.90;;;;;;5028082;28;20046;-80
2023/08/20 07:49:52;;;;;;;7.75;1.85;;;20.30;99.90;;;;;;5069769;28;20041;-80
2023/08/20 07:52:19;;;;;;;7.70;1.63;;;20.50;99.90;;;;;;5040892;28;20367;-80
2023/08/20 07:54:45;;;;;;;6.63;1.50;;;20.60;99.90;;;;;;5052993;28;20049;-81
2023/08/20 07:57:12;;;;;;;8.18;2.03;;;20.70;99.90;;;;;;5057677;28;20045;-81
2023/08/20 07:59:39;;;;;;;10.27;1.90;;;20.60;99.90;;;;;;5070630;28;20056;-81
2023/08/20 08:02:05;;;;;;;7.47;1.90;;;20.60;99.90;;;;;;5068290;28;20037;-81
2023/08/20 08:04:32;;;;;;;9.07;1.90;;;20.60;99.90;;;;;;5063157;28;20040;-80
2023/08/20 08:06:59;;;;;;;6.07;1.73;;;20.60;99.90;;;;;;5067233;28;20060;-81
2023/08/20 08:09:26;;;;;;;14.32;2.10;;;20.70;99.90;;;;;;5053596;28;20049;-81
2023/08/20 08:11:53;;;;;;;8.82;1.73;;;20.80;99.90;;;;;;5039921;28;20045;-80
2023/08/20 08:14:19;;;;;;;8.00;1.70;;;20.90;99.90;;;;;;5056325;28;20103;-81
2023/08/20 08:16:46;;;;;;;12.93;1.88;;;21.00;99.90;;;;;;5042939;28;20044;-81
2023/08/20 08:19:13;;;;;;;9.57;1.65;;;21.00;99.90;;;;;;5069171;28;20052;-81
2023/08/20 08:21:40;;;;;;;9.35;2.05;;;21.00;99.90;;;;;;5044229;28;20041;-81
2023/08/20 08:24:06;;;;;;;8.73;1.80;;;21.30;99.90;;;;;;5057629;28;20068;-81
2023/08/20 08:29:03;;;;;;;11.02;1.98;;;21.20;99.90;;;;;;5057825;28;20041;-81
2023/08/20 08:31:29;;;;;;;9.50;1.92;;;20.90;99.90;;;;;;5067529;28;20072;-81
2023/08/20 08:33:56;;;;;;;7.10;1.50;;;20.60;99.90;;;;;;5041388;28;20051;-81
2023/08/20 08:36:24;;;;;;;12.25;2.55;;;20.40;99.90;;;;;;5055383;28;20050;-81
2023/08/20 08:38:51;;;;;;;9.95;2.10;;;20.50;99.90;;;;;;5074929;28;20110;-81
2023/08/20 08:41:18;;;;;;;10.90;1.75;;;20.60;99.90;;;;;;5063272;28;20098;-81
2023/08/20 08:43:46;;;;;;;8.80;1.70;;;21.00;99.90;;;;;;5062341;28;20045;-81
2023/08/20 08:46:14;;;;;;;10.55;1.80;;;21.10;99.90;;;;;;5049027;28;20080;-81
2023/08/20 08:48:41;;;;;;;10.48;1.73;;;21.10;99.90;;;;;;5033708;28;20464;-81
2023/08/20 08:51:08;;;;;;;9.77;2.03;;;21.30;99.90;;;;;;5036701;28;20045;-80
2023/08/20 08:53:35;;;;;;;9.05;2.22;;;21.70;99.90;;;;;;5035782;28;20049;-81
2023/08/20 08:56:02;;;;;;;12.10;1.70;;;21.90;99.90;;;;;;5064708;28;20046;-81
2023/08/20 08:58:30;;;;;;;9.18;2.03;;;21.80;99.90;;;;;;5054911;28;20044;-81
2023/08/20 09:00:57;;;;;;;10.85;1.80;;;21.90;99.90;;;;;;5058155;28;20116;-81
2023/08/20 09:03:24;;;;;;;10.23;1.70;;;21.90;99.90;;;;;;5051643;28;20043;-81
2023/08/20 09:05:51;;;;;;;10.30;1.77;;;22.30;99.90;;;;;;5049452;28;20076;-81
2023/08/20 09:08:17;;;;;;;13.77;2.63;;;22.40;99.90;;;;;;5030431;28;20135;-81
2023/08/20 09:10:44;;;;;;;8.93;1.80;;;22.60;99.90;;;;;;5046650;28;20144;-81
2023/08/20 09:13:11;;;;;;;8.07;1.77;;;22.70;99.90;;;;;;5047341;28;20037;-81
2023/08/20 09:15:37;;;;;;;9.82;1.80;;;22.90;99.90;;;;;;5018605;28;20088;-81
2023/08/20 09:18:05;;;;;;;8.88;1.83;;;23.00;99.90;;;;;;5064102;28;20043;-81
2023/08/20 09:20:32;;;;;;;6.80;1.55;;;22.90;99.90;;;;;;5035190;28;20450;-81
2023/08/20 09:22:58;;;;;;;7.28;1.85;;;22.70;99.90;;;;;;5030056;28;20045;-81
2023/08/20 09:25:25;;;;;;;7.82;1.98;;;22.50;99.90;;;;;;5051342;28;20479;-81
2023/08/20 09:27:54;;;;;;;8.75;1.60;;;22.60;99.90;;;;;;5068379;28;20111;-81
2023/08/20 09:30:21;;;;;;;9.77;2.42;;;22.90;99.90;;;;;;5061629;28;20062;-81
2023/08/20 09:32:47;;;;;;;8.95;1.75;;;23.10;99.90;;;;;;5066748;28;20490;-81
2023/08/20 09:35:14;;;;;;;7.97;1.73;;;23.30;99.90;;;;;;5051920;28;20048;-81
2023/08/20 09:37:41;;;;;;;11.73;2.47;;;23.30;99.90;;;;;;5029956;28;20542;-80
2023/08/20 09:40:07;;;;;;;9.77;1.73;;;23.30;99.90;;;;;;5045279;28;20041;-80
2023/08/20 09:42:34;;;;;;;7.53;1.60;;;23.50;99.90;;;;;;5058525;28;20051;-80
2023/08/20 09:45:01;;;;;;;6.63;1.70;;;23.40;99.90;;;;;;5085876;28;20110;-80
2023/08/20 09:47:28;;;;;;;8.48;2.00;;;23.50;99.90;;;;;;5092207;28;20528;-81
2023/08/20 09:49:55;;;;;;;9.57;2.20;;;23.70;99.90;;;;;;5066869;28;20040;-81
2023/08/20 09:52:22;;;;;;;9.43;1.88;;;23.90;99.90;;;;;;5082470;28;20087;-81
2023/08/20 09:54:48;;;;;;;6.55;1.80;;;23.80;99.90;;;;;;5054344;28;20041;-81
2023/08/20 09:57:15;;;;;;;6.85;1.30;;;23.60;99.90;;;;;;5081493;28;20039;-80
2023/08/20 09:59:42;;;;;;;12.30;2.60;;;23.30;99.90;;;;;;5084398;28;20055;-80
2023/08/20 10:02:08;;;;;;;9.57;1.70;;;23.00;99.90;;;;;;5065354;28;20410;-80
2023/08/20 10:04:35;;;;;;;5.85;1.60;;;22.90;99.90;;;;;;5075328;28;20123;-80
2023/08/20 10:07:03;;;;;;;12.15;1.70;;;22.90;99.90;;;;;;5073605;28;20098;-80
2023/08/20 10:09:29;;;;;;;8.80;1.52;;;22.90;99.90;;;;;;5074982;28;20133;-80
2023/08/20 10:11:56;;;;;;;10.75;2.25;;;22.90;99.90;;;;;;5081425;28;20079;-80
2023/08/20 10:14:23;;;;;;;7.47;1.48;;;23.10;99.90;;;;;;5079977;28;20534;-81
2023/08/20 10:16:51;;;;;;;7.93;1.88;;;23.30;99.90;;;;;;5036146;28;20045;-81
2023/08/20 10:19:17;;;;;;;8.18;1.55;;;23.30;99.90;;;;;;5066874;28;20055;-81
2023/08/20 10:21:45;;;;;;;9.20;2.15;;;23.60;99.90;;;;;;5055699;28;20091;-81
2023/08/20 10:24:12;;;;;;;10.35;2.17;;;24.00;99.90;;;;;;5078540;28;20064;-81
2023/08/20 10:29:08;;;;;;;10.02;2.40;;;25.00;99.90;;;;;;5053825;28;20144;-81
2023/08/20 10:31:35;;;;;;;10.05;2.10;;;25.40;99.90;;;;;;5078659;28;20054;-81
2023/08/20 10:34:02;;;;;;;10.23;2.22;;;25.80;99.90;;;;;;5057954;28;20045;-81
2023/08/20 10:36:30;;;;;;;12.57;2.58;;;26.00;99.90;;;;;;5054614;28;20049;-81
2023/08/20 10:38:58;;;;;;;10.25;2.45;;;26.20;99.90;;;;;;5073065;28;20388;-81
2023/08/20 10:41:24;;;;;;;7.85;1.95;;;26.10;99.90;;;;;;5076522;28;20041;-81
2023/08/20 10:43:52;;;;;;;6.75;1.67;;;26.50;99.90;;;;;;5053128;28;20476;-81
2023/08/20 10:46:19;;;;;;;8.23;2.15;;;26.40;99.90;;;;;;5043640;28;20063;-81
2023/08/20 10:48:46;;;;;;;8.77;2.10;;;25.70;99.90;;;;;;5048127;28;20069;-81
2023/08/20 10:51:12;;;;;;;8.65;2.00;;;25.80;99.90;;;;;;5048343;28;20081;-81
2023/08/20 10:53:39;;;;;;;9.32;1.98;;;26.10;99.90;;;;;;5033659;28;20055;-81
2023/08/20 10:56:06;;;;;;;8.88;2.33;;;26.40;99.90;;;;;;5037587;28;20395;-80
2023/08/20 10:58:32;;;;;;;7.78;2.15;;;26.90;99.90;;;;;;5044185;28;20052;-80
2023/08/20 11:00:59;;;;;;;10.77;2.30;;;27.10;99.90;;;;;;5044329;28;20123;-80
2023/08/20 11:03:26;;;;;;;8.73;2.30;;;27.10;99.90;;;;;;5051035;28;20046;-80
2023/08/20 11:05:52;;;;;;;7.93;1.80;;;26.40;99.90;;;;;;5060333;28;20388;-81
2023/08/20 11:08:21;;;;;;;8.80;2.00;;;26.20;99.90;;;;;;5046176;28;20033;-81
2023/08/20 11:10:48;;;;;;;8.75;2.22;;;26.10;99.90;;;;;;5061478;28;20037;-81
2023/08/20 11:13:15;;;;;;;7.43;1.55;;;26.20;99.90;;;;;;5062811;28;20156;-80
2023/08/20 11:15:41;;;;;;;9.30;1.90;;;26.20;99.90;;;;;;5045099;28;20044;-81
2023/08/20 11:18:08;;;;;;;7.38;1.83;;;27.20;99.90;;;;;;5039579;28;20460;-81
2023/08/20 11:20:35;;;;;;;7.05;1.70;;;28.00;99.90;;;;;;5064045;28;20049;-81
2023/08/20 11:23:02;;;;;;;7.55;1.63;;;28.50;99.90;;;;;;5039995;28;20439;-81
2023/08/20 11:25:29;;;;;;;6.72;1.50;;;29.00;99.90;;;;;;5038087;28;20415;-79
2023/08/20 11:27:56;;;;;;;8.82;2.10;;;29.20;99.90;;;;;;5041248;28;20052;-81
2023/08/20 11:30:24;;;;;;;8.05;1.77;;;28.90;99.90;;;;;;5037956;28;20052;-79
2023/08/20 11:32:52;;;;;;;9.90;2.10;;;28.20;99.90;;;;;;5019510;28;20429;-80
2023/08/20 11:35:19;;;;;;;7.72;1.80;;;28.30;99.90;;;;;;5066221;28;20051;-80
2023/08/20 11:37:47;;;;;;;7.55;1.90;;;28.20;99.90;;;;;;5051708;28;20359;-80
2023/08/20 11:40:14;;;;;;;7.47;2.00;;;28.00;99.90;;;;;;5077001;28;20116;-81
2023/08/20 11:42:40;;;;;;;7.30;1.90;;;28.40;99.90;;;;;;5053291;28;20077;-80
2023/08/20 11:45:07;;;;;;;5.45;1.40;;;28.70;99.90;;;;;;5049047;28;20037;-81
2023/08/20 11:47:34;;;;;;;7.47;1.88;;;28.70;99.90;;;;;;5039636;28;20111;-80
2023/08/20 11:50:01;;;;;;;6.72;1.80;;;29.50;99.90;;;;;;5056822;28;20051;-80
2023/08/20 11:52:27;;;;;;;8.15;1.92;;;30.00;99.90;;;;;;5059907;28;20048;-81
2023/08/20 11:54:54;;;;;;;8.40;2.45;;;29.90;99.90;;;;;;5027022;28;20436;-81
2023/08/20 12:00:09;;;;;;;7.18;1.88;;;29.50;99.90;;;;;;5067852;28;20463;-80
2023/08/20 12:02:42;;;;;;;7.57;1.52;;;29.30;99.90;;;;;;5041166;28;20107;-79
2023/08/20 12:05:09;;;;;;;6.97;1.70;;;29.50;99.90;;;;;;5054107;28;20119;-80
2023/08/20 12:07:36;;;;;;;7.25;1.52;;;30.30;99.90;;;;;;5048209;28;20048;-80
2023/08/20 12:10:03;;;;;;;6.22;1.50;;;30.20;99.90;;;;;;5077352;28;20108;-80
2023/08/20 12:12:29;;;;;;;6.78;1.70;;;30.80;99.90;;;;;;5064398;28;20124;-79
2023/08/20 12:14:56;;;;;;;5.45;1.40;;;31.10;99.90;;;;;;5047011;28;20043;-80
2023/08/20 12:17:23;;;;;;;6.22;1.33;;;31.80;99.90;;;;;;5049096;28;20079;-81
2023/08/20 12:19:50;;;;;;;8.00;1.80;;;31.80;99.90;;;;;;5042048;28;20041;-81
2023/08/20 12:22:16;;;;;;;7.10;1.65;;;31.80;99.90;;;;;;5056738;28;20131;-81
2023/08/20 12:24:43;;;;;;;6.82;1.90;;;31.90;99.90;;;;;;5041886;28;20124;-81
2023/08/20 12:27:11;;;;;;;10.77;1.65;;;32.30;99.90;;;;;;5050909;28;20367;-80
2023/08/20 12:29:37;;;;;;;7.03;1.85;;;32.70;99.90;;;;;;5067262;28;20498;-80
2023/08/20 12:32:07;;;;;;;6.93;1.50;;;33.00;99.90;;;;;;5039118;28;20037;-80
2023/08/20 12:34:34;;;;;;;6.07;1.70;;;32.60;99.90;;;;;;5047382;28;20045;-80
2023/08/20 12:37:02;;;;;;;6.65;1.60;;;32.60;99.90;;;;;;5036767;28;20041;-81
2023/08/20 12:39:28;;;;;;;8.43;1.80;;;32.60;99.90;;;;;;5031827;28;20139;-79
2023/08/20 12:41:55;;;;;;;6.70;1.48;;;32.60;99.90;;;;;;5059113;28;20036;-80
2023/08/20 12:44:21;;;;;;;5.82;1.40;;;31.40;99.60;;;;;;5053291;28;20091;-80
2023/08/20 12:46:48;;;;;;;5.43;1.60;;;30.60;99.90;;;;;;5029861;28;20137;-80